createdAt,value
2018-07-20T00:00:07.388Z,13.07
2018-07-20T00:02:47.889Z,12.37
2018-07-20T00:05:28.777Z,12.17
2018-07-20T00:08:09.280Z,17.33
2018-07-20T00:10:49.949Z,15.23
2018-07-20T00:13:30.887Z,16.77
2018-07-20T00:16:11.772Z,14.90
2018-07-20T00:18:52.331Z,15.50
2018-07-20T00:21:33.324Z,16.00
2018-07-20T00:24:14.076Z,14.70
2018-07-20T00:26:55.100Z,14.33
2018-07-20T00:29:35.672Z,13.07
2018-07-20T00:32:16.448Z,12.33
2018-07-20T00:34:57.410Z,14.73
2018-07-20T00:37:38.247Z,15.27
2018-07-20T00:40:19.080Z,16.77
2018-07-20T00:42:59.938Z,14.17
2018-07-20T00:45:40.298Z,14.73
2018-07-20T00:48:20.864Z,13.60
2018-07-20T00:51:01.720Z,14.90
2018-07-20T00:53:42.483Z,15.93
2018-07-20T00:56:22.915Z,15.60
2018-07-20T00:59:03.860Z,16.70
2018-07-20T01:01:44.943Z,17.20
2018-07-20T01:04:25.981Z,14.67
2018-07-20T01:07:06.730Z,13.70
2018-07-20T01:09:47.364Z,16.13
2018-07-20T01:12:29.515Z,14.30
2018-07-20T01:15:10.657Z,15.33
2018-07-20T01:17:51.042Z,13.40
2018-07-20T01:20:32.141Z,17.20
2018-07-20T01:23:12.877Z,13.63
2018-07-20T01:25:53.619Z,15.57
2018-07-20T01:28:34.114Z,17.83
2018-07-20T01:31:15.292Z,14.67
2018-07-20T01:33:55.770Z,14.87
2018-07-20T01:36:36.119Z,17.03
2018-07-20T01:39:16.787Z,14.33
2018-07-20T01:41:57.501Z,13.67
2018-07-20T01:44:38.428Z,13.73
2018-07-20T01:47:18.687Z,15.77
2018-07-20T01:49:59.101Z,14.00
2018-07-20T01:52:39.976Z,14.73
2018-07-20T01:55:20.684Z,14.60
2018-07-20T01:58:01.595Z,15.60
2018-07-20T02:00:43.441Z,14.40
2018-07-20T02:03:24.024Z,14.47
2018-07-20T02:06:05.179Z,13.97
2018-07-20T02:08:46.014Z,14.33
2018-07-20T02:11:26.875Z,14.77
2018-07-20T02:14:07.195Z,15.90
2018-07-20T02:16:48.224Z,16.17
2018-07-20T02:19:29.100Z,18.17
2018-07-20T02:22:09.887Z,17.27
2018-07-20T02:24:50.624Z,17.40
2018-07-20T02:27:31.963Z,16.43
2018-07-20T02:30:12.712Z,15.63
2018-07-20T02:32:53.752Z,16.43
2018-07-20T02:35:35.012Z,16.47
2018-07-20T02:38:15.792Z,19.50
2018-07-20T02:40:56.154Z,18.20
2018-07-20T02:43:37.523Z,18.43
2018-07-20T02:46:18.368Z,16.60
2018-07-20T02:48:59.061Z,17.73
2018-07-20T02:51:40.241Z,16.83
2018-07-20T02:54:20.811Z,17.63
2018-07-20T02:57:01.957Z,17.80
2018-07-20T02:59:42.556Z,15.10
2018-07-20T03:02:23.617Z,16.63
2018-07-20T03:05:05.012Z,16.03
2018-07-20T03:07:45.878Z,15.17
2018-07-20T03:10:26.392Z,12.57
2018-07-20T03:13:07.682Z,14.73
2018-07-20T03:15:48.405Z,16.03
2018-07-20T03:18:29.111Z,15.43
2018-07-20T03:21:10.608Z,13.63
2018-07-20T03:23:51.585Z,14.40
2018-07-20T03:26:32.481Z,11.70
2018-07-20T03:29:13.684Z,13.50
2018-07-20T03:31:54.227Z,14.90
2018-07-20T03:34:34.966Z,12.65
2018-07-20T03:37:15.437Z,10.97
2018-07-20T03:39:56.441Z,11.43
2018-07-20T03:42:38.244Z,14.83
2018-07-20T03:45:19.613Z,14.93
2018-07-20T03:48:00.838Z,16.03
2018-07-20T03:50:42.039Z,14.17
2018-07-20T03:53:22.739Z,11.20
2018-07-20T03:56:04.113Z,11.50
2018-07-20T03:58:44.962Z,12.43
2018-07-20T04:01:25.644Z,10.70
2018-07-20T04:04:06.484Z,10.07
2018-07-20T04:06:46.973Z,10.97
2018-07-20T04:09:27.812Z,11.43
2018-07-20T04:12:08.575Z,11.70
2018-07-20T04:14:49.346Z,11.57
2018-07-20T04:17:36.741Z,11.10
2018-07-20T04:20:17.742Z,11.20
2018-07-20T04:22:58.160Z,12.33
2018-07-20T04:25:39.340Z,13.07
2018-07-20T04:28:20.357Z,11.90
2018-07-20T04:31:01.152Z,12.47
2018-07-20T04:33:41.841Z,11.37
2018-07-20T04:36:22.327Z,13.23
2018-07-20T04:39:06.321Z,11.47
2018-07-20T04:41:46.789Z,10.93
2018-07-20T04:44:27.340Z,11.53
2018-07-20T04:47:08.204Z,10.70
2018-07-20T04:49:49.004Z,14.80
2018-07-20T04:52:29.979Z,10.60
2018-07-20T04:55:11.389Z,10.43
2018-07-20T04:57:51.991Z,15.13
2018-07-20T05:00:32.989Z,10.97
2018-07-20T05:03:14.099Z,14.40
2018-07-20T05:05:54.779Z,16.87
2018-07-20T05:08:35.716Z,13.20
2018-07-20T05:11:16.742Z,10.03
2018-07-20T05:13:57.256Z,13.07
2018-07-20T05:16:37.883Z,12.97
2018-07-20T05:19:18.604Z,10.87
2018-07-20T05:21:59.781Z,10.50
2018-07-20T05:24:40.324Z,12.10
2018-07-20T05:27:21.175Z,11.37
2018-07-20T05:30:01.742Z,13.70
2018-07-20T05:32:42.362Z,9.27
2018-07-20T05:35:23.720Z,11.40
2018-07-20T05:38:04.988Z,11.80
2018-07-20T05:40:46.212Z,13.77
2018-07-20T05:43:26.968Z,11.17
2018-07-20T05:46:07.210Z,14.73
2018-07-20T05:48:47.803Z,10.63
2018-07-20T05:51:28.892Z,11.80
2018-07-20T05:54:09.689Z,10.57
2018-07-20T05:56:50.400Z,10.23
2018-07-20T05:59:31.223Z,12.07
2018-07-20T06:02:11.663Z,9.87
2018-07-20T06:04:52.420Z,12.13
2018-07-20T06:07:33.172Z,11.60
2018-07-20T06:10:14.090Z,9.93
2018-07-20T06:12:55.458Z,9.80
2018-07-20T06:15:36.261Z,14.30
2018-07-20T06:18:17.033Z,12.00
2018-07-20T06:20:57.538Z,10.67
2018-07-20T06:23:38.432Z,11.53
2018-07-20T06:26:19.309Z,11.73
2018-07-20T06:29:00.009Z,9.20
2018-07-20T06:31:41.253Z,10.80
2018-07-20T06:34:22.476Z,9.60
2018-07-20T06:37:03.452Z,14.00
2018-07-20T06:39:44.015Z,8.80
2018-07-20T06:42:24.730Z,11.20
2018-07-20T06:45:05.917Z,9.80
2018-07-20T06:47:46.669Z,10.37
2018-07-20T06:50:27.549Z,10.13
2018-07-20T06:53:08.056Z,10.43
2018-07-20T06:55:49.284Z,8.83
2018-07-20T06:58:30.387Z,10.27
2018-07-20T07:01:10.752Z,12.93
2018-07-20T07:03:51.200Z,11.43
2018-07-20T07:06:32.372Z,10.60
2018-07-20T07:09:13.537Z,7.70
2018-07-20T07:11:54.112Z,10.53
2018-07-20T07:14:35.207Z,8.87
2018-07-20T07:17:16.221Z,12.10
2018-07-20T07:19:56.728Z,8.73
2018-07-20T07:22:37.799Z,11.37
2018-07-20T07:25:18.303Z,8.30
2018-07-20T07:27:58.836Z,8.27
2018-07-20T07:30:40.116Z,8.13
2018-07-20T07:33:20.687Z,5.87
2018-07-20T07:36:01.459Z,8.10
2018-07-20T07:38:42.125Z,8.07
2018-07-20T07:41:22.876Z,6.17
2018-07-20T07:44:04.074Z,10.10
2018-07-20T07:46:45.018Z,6.10
2018-07-20T07:49:25.507Z,5.70
2018-07-20T07:52:06.684Z,6.60
2018-07-20T07:54:47.109Z,5.27
2018-07-20T07:57:28.112Z,4.50
2018-07-20T08:00:09.399Z,7.70
2018-07-20T08:02:50.369Z,8.30
2018-07-20T08:05:31.509Z,4.40
2018-07-20T08:08:12.627Z,4.80
2018-07-20T08:10:53.111Z,3.90
2018-07-20T08:13:33.967Z,5.27
2018-07-20T08:16:14.962Z,4.83
2018-07-20T08:18:56.170Z,4.87
2018-07-20T08:21:37.721Z,4.70
2018-07-20T08:24:18.189Z,4.97
2018-07-20T08:26:59.305Z,5.57
2018-07-20T08:29:40.347Z,3.73
2018-07-20T08:32:21.108Z,4.77
2018-07-20T08:35:02.293Z,8.23
2018-07-20T08:37:42.994Z,6.20
2018-07-20T08:40:23.808Z,6.77
2018-07-20T08:43:04.426Z,4.40
2018-07-20T08:45:45.303Z,6.63
2018-07-20T08:48:26.500Z,5.57
2018-07-20T08:51:07.305Z,7.57
2018-07-20T08:53:48.129Z,5.43
2018-07-20T08:56:29.079Z,7.70
2018-07-20T08:59:09.761Z,6.73
2018-07-20T09:01:50.628Z,6.63
2018-07-20T09:04:32.136Z,8.50
2018-07-20T09:07:13.356Z,4.40
2018-07-20T09:09:53.831Z,4.77
2018-07-20T09:12:34.556Z,5.53
2018-07-20T09:15:16.189Z,5.83
2018-07-20T09:17:56.685Z,5.07
2018-07-20T09:20:38.233Z,8.27
2018-07-20T09:23:19.612Z,4.70
2018-07-20T09:26:00.553Z,7.80
2018-07-20T09:28:41.312Z,5.30
2018-07-20T09:31:22.194Z,6.37
2018-07-20T09:34:03.069Z,6.90
2018-07-20T09:36:44.090Z,8.67
2018-07-20T09:39:25.217Z,6.90
2018-07-20T09:42:06.398Z,4.73
2018-07-20T09:44:46.924Z,5.77
2018-07-20T09:47:27.457Z,4.83
2018-07-20T09:50:08.333Z,5.33
2018-07-20T09:52:49.240Z,5.43
2018-07-20T09:55:29.756Z,6.60
2018-07-20T09:58:10.403Z,4.40
2018-07-20T10:00:52.395Z,6.67
2018-07-20T10:03:33.569Z,6.47
2018-07-20T10:06:14.527Z,6.70
2018-07-20T10:08:55.377Z,5.10
2018-07-20T10:11:35.851Z,5.40
2018-07-20T10:14:16.568Z,10.63
2018-07-20T10:16:57.679Z,4.23
2018-07-20T10:19:39.137Z,5.30
2018-07-20T10:22:19.800Z,4.60
2018-07-20T10:25:00.635Z,4.77
2018-07-20T10:30:22.891Z,4.40
2018-07-20T10:33:03.649Z,4.40
2018-07-20T10:35:44.477Z,6.50
2018-07-20T10:38:25.333Z,4.33
2018-07-20T10:41:06.643Z,4.47
2018-07-20T10:43:47.004Z,4.97
2018-07-20T10:46:28.224Z,5.40
2018-07-20T10:49:09.017Z,6.83
2018-07-20T10:51:49.481Z,5.80
2018-07-20T10:54:30.962Z,5.83
2018-07-20T10:57:11.532Z,5.97
2018-07-20T10:59:52.345Z,4.60
2018-07-20T11:02:32.836Z,4.90
2018-07-20T11:05:14.106Z,6.47
2018-07-20T11:07:54.974Z,6.47
2018-07-20T11:10:36.327Z,5.90
2018-07-20T11:13:17.054Z,5.57
2018-07-20T11:15:57.763Z,4.60
2018-07-20T11:18:38.391Z,4.77
2018-07-20T11:21:19.293Z,4.50
2018-07-20T11:24:00.527Z,4.80
2018-07-20T11:26:42.811Z,5.93
2018-07-20T11:29:23.712Z,8.77
2018-07-20T11:32:04.486Z,4.67
2018-07-20T11:34:45.726Z,4.30
2018-07-20T11:37:26.504Z,5.70
2018-07-20T11:40:07.299Z,4.10
2018-07-20T11:42:48.090Z,4.10
2018-07-20T11:45:29.040Z,5.37
2018-07-20T11:48:09.820Z,4.10
2018-07-20T11:50:50.814Z,5.27
2018-07-20T11:53:32.073Z,6.93
2018-07-20T11:56:12.916Z,6.33
2018-07-20T11:58:53.890Z,7.37
2018-07-20T12:01:34.283Z,4.13
2018-07-20T12:04:14.689Z,4.90
2018-07-20T12:06:56.038Z,4.50
2018-07-20T12:09:36.544Z,7.67
2018-07-20T12:12:17.191Z,6.53
2018-07-20T12:14:57.924Z,7.17
2018-07-20T12:17:38.662Z,6.33
2018-07-20T12:20:19.352Z,6.33
2018-07-20T12:23:00.028Z,5.43
2018-07-20T12:25:40.953Z,4.67
2018-07-20T12:28:21.795Z,4.13
2018-07-20T12:31:02.340Z,4.60
2018-07-20T12:33:43.090Z,7.07
2018-07-20T12:36:23.521Z,6.20
2018-07-20T12:39:06.257Z,6.77
2018-07-20T12:41:47.269Z,6.17
2018-07-20T12:44:27.804Z,5.87
2018-07-20T12:47:08.942Z,8.67
2018-07-20T12:49:49.525Z,4.70
2018-07-20T12:52:31.395Z,4.80
2018-07-20T12:55:12.213Z,5.50
2018-07-20T12:57:53.036Z,7.13
2018-07-20T13:00:33.689Z,5.77
2018-07-20T13:03:14.352Z,8.50
2018-07-20T13:05:54.981Z,5.20
2018-07-20T13:08:36.147Z,4.50
2018-07-20T13:11:17.558Z,6.43
2018-07-20T13:13:58.415Z,6.17
2018-07-20T13:16:39.311Z,5.00
2018-07-20T13:19:20.265Z,6.50
2018-07-20T13:22:00.705Z,7.20
2018-07-20T13:24:41.401Z,4.70
2018-07-20T13:27:22.473Z,6.33
2018-07-20T13:30:03.492Z,5.67
2018-07-20T13:32:44.584Z,5.23
2018-07-20T13:35:25.802Z,11.73
2018-07-20T13:38:06.693Z,4.93
2018-07-20T13:40:47.684Z,4.13
2018-07-20T13:43:29.824Z,4.43
2018-07-20T13:46:10.661Z,4.13
2018-07-20T13:48:51.492Z,7.50
2018-07-20T13:51:32.211Z,4.27
2018-07-20T13:54:12.327Z,5.20
2018-07-20T13:56:53.040Z,6.67
2018-07-20T13:59:33.589Z,5.43
2018-07-20T14:02:15.626Z,8.30
2018-07-20T14:04:56.400Z,5.37
2018-07-20T14:07:36.873Z,4.97
2018-07-20T14:10:18.000Z,4.80
2018-07-20T14:12:58.776Z,4.43
2018-07-20T14:15:39.995Z,5.07
2018-07-20T14:18:20.483Z,11.10
2018-07-20T14:21:01.288Z,4.23
2018-07-20T14:23:41.945Z,4.93
2018-07-20T14:26:23.281Z,6.23
2018-07-20T14:29:04.264Z,5.73
2018-07-20T14:31:45.493Z,8.10
2018-07-20T14:34:26.085Z,4.60
2018-07-20T14:37:07.570Z,4.50
2018-07-20T14:39:48.511Z,4.00
2018-07-20T14:42:29.395Z,8.83
2018-07-20T14:45:10.856Z,5.07
2018-07-20T14:47:51.516Z,4.63
2018-07-20T14:50:32.373Z,7.50
2018-07-20T14:53:12.697Z,4.40
2018-07-20T14:55:53.372Z,7.03
2018-07-20T14:58:33.721Z,5.33
2018-07-20T15:01:14.090Z,4.53
2018-07-20T15:03:54.748Z,7.30
2018-07-20T15:06:35.106Z,5.13
2018-07-20T15:09:15.524Z,4.63
2018-07-20T15:11:56.273Z,5.10
2018-07-20T15:14:37.008Z,4.90
2018-07-20T15:17:17.910Z,6.20
2018-07-20T15:19:59.054Z,7.07
2018-07-20T15:22:40.126Z,4.60
2018-07-20T15:25:21.257Z,5.97
2018-07-20T15:28:02.097Z,7.63
2018-07-20T15:30:42.854Z,5.37
2018-07-20T15:33:23.338Z,6.13
2018-07-20T15:36:04.502Z,4.33
2018-07-20T15:38:45.592Z,6.43
2018-07-20T15:41:26.057Z,4.80
2018-07-20T15:44:06.957Z,5.07
2018-07-20T15:46:48.324Z,4.80
2018-07-20T15:49:28.753Z,4.80
2018-07-20T15:54:50.723Z,4.90
2018-07-20T15:57:31.768Z,5.33
2018-07-20T16:00:12.242Z,7.67
2018-07-20T16:02:53.190Z,4.40
2018-07-20T16:05:34.885Z,6.17
2018-07-20T16:08:15.585Z,6.10
2018-07-20T16:10:56.721Z,5.43
2018-07-20T16:13:37.666Z,5.90
2018-07-20T16:16:18.164Z,4.90
2018-07-20T16:18:59.090Z,5.37
2018-07-20T16:21:39.473Z,4.80
2018-07-20T16:24:20.389Z,15.93
2018-07-20T16:27:01.147Z,9.93
2018-07-20T16:29:41.952Z,8.83
2018-07-20T16:32:22.529Z,5.33
2018-07-20T16:35:03.365Z,6.97
2018-07-20T16:37:44.291Z,4.90
2018-07-20T16:40:25.186Z,7.27
2018-07-20T16:43:06.076Z,7.17
2018-07-20T16:45:46.774Z,7.57
2018-07-20T16:48:27.228Z,6.47
2018-07-20T16:51:08.308Z,5.93
2018-07-20T16:53:49.175Z,9.23
2018-07-20T16:56:30.395Z,10.57
2018-07-20T16:59:13.342Z,5.13
2018-07-20T17:01:54.713Z,8.50
2018-07-20T17:04:35.439Z,5.60
2018-07-20T17:07:15.817Z,5.70
2018-07-20T17:09:56.277Z,5.70
2018-07-20T17:12:37.146Z,6.10
2018-07-20T17:15:18.065Z,5.87
2018-07-20T17:17:58.437Z,5.37
2018-07-20T17:20:38.845Z,6.07
2018-07-20T17:23:19.656Z,6.87
2018-07-20T17:26:00.757Z,5.77
2018-07-20T17:28:41.441Z,5.83
2018-07-20T17:31:22.120Z,9.53
2018-07-20T17:34:02.489Z,6.13
2018-07-20T17:36:43.872Z,6.40
2018-07-20T17:39:25.298Z,9.47
2018-07-20T17:42:06.376Z,7.57
2018-07-20T17:44:46.791Z,6.13
2018-07-20T17:47:27.665Z,9.57
2018-07-20T17:50:08.573Z,6.17
2018-07-20T17:52:49.483Z,6.90
2018-07-20T17:55:30.682Z,10.43
2018-07-20T17:58:11.747Z,8.23
2018-07-20T18:00:52.702Z,8.83
2018-07-20T18:03:33.452Z,10.57
2018-07-20T18:06:14.549Z,9.67
2018-07-20T18:08:55.732Z,9.70
2018-07-20T18:11:36.521Z,8.27
2018-07-20T18:14:17.048Z,7.60
2018-07-20T18:16:57.761Z,8.23
2018-07-20T18:19:38.447Z,8.93
2018-07-20T18:22:18.934Z,6.97
2018-07-20T18:24:59.340Z,7.63
2018-07-20T18:27:39.833Z,10.67
2018-07-20T18:30:21.652Z,7.53
2018-07-20T18:33:03.870Z,11.40
2018-07-20T18:35:44.768Z,8.83
2018-07-20T18:38:25.297Z,7.80
2018-07-20T18:41:06.420Z,8.10
2018-07-20T18:43:46.922Z,8.00
2018-07-20T18:46:28.106Z,11.70
2018-07-20T18:49:09.470Z,10.30
2018-07-20T18:51:50.755Z,10.27
2018-07-20T18:54:31.175Z,11.83
2018-07-20T18:57:11.824Z,7.83
2018-07-20T18:59:52.987Z,8.80
2018-07-20T19:02:34.307Z,12.03
2018-07-20T19:05:15.656Z,8.20
2018-07-20T19:07:56.473Z,7.37
2018-07-20T19:10:37.173Z,11.13
2018-07-20T19:13:18.195Z,9.87
2018-07-20T19:15:59.068Z,11.10
2018-07-20T19:18:39.876Z,8.33
2018-07-20T19:21:20.380Z,10.43
2018-07-20T19:24:01.292Z,7.27
2018-07-20T19:26:42.245Z,11.53
2018-07-20T19:29:22.964Z,8.53
2018-07-20T19:32:03.737Z,10.60
2018-07-20T19:34:54.182Z,9.97
2018-07-20T19:37:35.532Z,9.47
2018-07-20T19:40:16.709Z,15.67
2018-07-20T19:42:58.397Z,9.73
2018-07-20T19:45:45.235Z,9.33
2018-07-20T19:48:26.466Z,8.40
2018-07-20T19:51:07.122Z,11.93
2018-07-20T19:53:48.368Z,12.00
2018-07-20T19:56:29.190Z,9.53
2018-07-20T19:59:10.146Z,8.47
2018-07-20T20:01:51.018Z,12.03
2018-07-20T20:04:31.448Z,10.40
2018-07-20T20:07:12.176Z,10.17
2018-07-20T20:09:53.970Z,10.80
2018-07-20T20:12:34.744Z,12.40
2018-07-20T20:15:15.978Z,11.53
2018-07-20T20:17:57.535Z,13.03
2018-07-20T20:20:38.131Z,10.43
2018-07-20T20:23:19.386Z,10.63
2018-07-20T20:25:59.946Z,11.53
2018-07-20T20:28:40.765Z,13.23
2018-07-20T20:31:21.392Z,14.37
2018-07-20T20:34:02.810Z,11.03
2018-07-20T20:36:43.441Z,14.00
2018-07-20T20:39:24.097Z,11.80
2018-07-20T20:42:05.294Z,12.83
2018-07-20T20:44:46.305Z,16.23
2018-07-20T20:47:26.914Z,15.53
2018-07-20T20:50:08.553Z,16.37
2018-07-20T20:52:50.095Z,12.10
2018-07-20T20:55:30.999Z,13.37
2018-07-20T20:58:11.639Z,17.70
2018-07-20T21:00:53.021Z,17.20
2018-07-20T21:03:33.722Z,20.97
2018-07-20T21:06:14.248Z,16.43
2018-07-20T21:08:55.673Z,17.00
2018-07-20T21:11:37.251Z,14.53
2018-07-20T21:14:18.282Z,15.37
2018-07-20T21:16:59.656Z,14.33
2018-07-20T21:19:40.861Z,16.53
2018-07-20T21:22:22.438Z,17.37
2018-07-20T21:25:03.069Z,16.53
2018-07-20T21:27:43.563Z,13.77
2018-07-20T21:30:24.268Z,13.50
2018-07-20T21:33:05.241Z,13.43
2018-07-20T21:35:45.925Z,17.03
2018-07-20T21:38:26.813Z,13.73
2018-07-20T21:41:07.533Z,14.53
2018-07-20T21:43:48.160Z,15.03
2018-07-20T21:46:29.206Z,18.27
2018-07-20T21:49:10.343Z,15.23
2018-07-20T21:51:51.249Z,15.97
2018-07-20T21:54:31.596Z,16.20
2018-07-20T21:57:12.321Z,15.93
2018-07-20T21:59:53.344Z,15.90
2018-07-20T22:02:34.371Z,16.23
2018-07-20T22:05:15.712Z,22.03
2018-07-20T22:08:01.293Z,18.27
2018-07-20T22:10:42.313Z,17.80
2018-07-20T22:13:23.515Z,20.43
2018-07-20T22:16:04.307Z,17.67
2018-07-20T22:18:45.385Z,13.77
2018-07-20T22:21:26.066Z,16.50
2018-07-20T22:24:07.461Z,16.23
2018-07-20T22:26:48.426Z,13.17
2018-07-20T22:29:28.882Z,15.30
2018-07-20T22:32:10.890Z,14.40
2018-07-20T22:34:52.139Z,15.57
2018-07-20T22:37:32.972Z,14.80
2018-07-20T22:40:13.537Z,15.20
2018-07-20T22:42:54.368Z,15.30
2018-07-20T22:45:34.832Z,16.57
2018-07-20T22:48:15.640Z,16.03
2018-07-20T22:50:56.581Z,14.57
2018-07-20T22:53:37.543Z,12.87
2018-07-20T22:56:19.068Z,14.37
2018-07-20T22:59:00.182Z,12.43
2018-07-20T23:01:41.154Z,13.30
2018-07-20T23:04:21.910Z,15.37
2018-07-20T23:07:02.797Z,15.87
2018-07-20T23:09:43.948Z,19.37
2018-07-20T23:12:24.707Z,16.60
2018-07-20T23:15:05.501Z,16.20
2018-07-20T23:17:46.356Z,12.97
2018-07-20T23:20:28.200Z,17.13
2018-07-20T23:23:09.417Z,15.20
2018-07-20T23:25:50.450Z,14.90
2018-07-20T23:28:32.780Z,14.83
2018-07-20T23:31:13.431Z,15.73
2018-07-20T23:33:54.240Z,13.97
2018-07-20T23:36:35.757Z,15.37
2018-07-20T23:39:16.615Z,14.23
2018-07-20T23:41:57.198Z,13.30
2018-07-20T23:44:37.643Z,12.77
2018-07-20T23:47:18.278Z,14.30
2018-07-20T23:49:59.244Z,11.03
2018-07-20T23:52:39.864Z,14.60
2018-07-20T23:55:20.286Z,14.80
2018-07-20T23:58:01.154Z,16.97
